sensor_id;sensor_type;location;lat;lon;timestamp;P1;durP1;ratioP1;P2;durP2;ratioP2
23718;SDS011;43322;52.230;5.702;2023-06-10T00:01:50;7.53;;;4.10;;
23718;SDS011;43322;52.230;5.702;2023-06-10T00:04:20;4.75;;;4.20;;
23718;SDS011;43322;52.230;5.702;2023-06-10T00:06:47;4.40;;;4.07;;
23718;SDS011;43322;52.230;5.702;2023-06-10T00:09:14;6.38;;;4.60;;
23718;SDS011;43322;52.230;5.702;2023-06-10T00:11:41;5.35;;;4.13;;
23718;SDS011;43322;52.230;5.702;2023-06-10T00:14:09;8.00;;;4.78;;
23718;SDS011;43322;52.230;5.702;2023-06-10T00:16:36;6.18;;;3.80;;
23718;SDS011;43322;52.230;5.702;2023-06-10T00:19:03;4.93;;;4.53;;
23718;SDS011;43322;52.230;5.702;2023-06-10T00:21:31;4.32;;;4.00;;
23718;SDS011;43322;52.230;5.702;2023-06-10T00:24:02;5.05;;;4.00;;
23718;SDS011;43322;52.230;5.702;2023-06-10T00:26:30;4.72;;;3.97;;
23718;SDS011;43322;52.230;5.702;2023-06-10T00:28:56;4.50;;;3.90;;
23718;SDS011;43322;52.230;5.702;2023-06-10T00:31:25;4.47;;;4.07;;
23718;SDS011;43322;52.230;5.702;2023-06-10T00:33:52;5.00;;;4.18;;
23718;SDS011;43322;52.230;5.702;2023-06-10T00:36:19;4.28;;;3.88;;
23718;SDS011;43322;52.230;5.702;2023-06-10T00:38:45;4.88;;;3.90;;
23718;SDS011;43322;52.230;5.702;2023-06-10T00:41:12;7.30;;;4.22;;
23718;SDS011;43322;52.230;5.702;2023-06-10T00:43:39;5.97;;;3.90;;
23718;SDS011;43322;52.230;5.702;2023-06-10T00:46:06;4.93;;;4.28;;
23718;SDS011;43322;52.230;5.702;2023-06-10T00:48:34;6.43;;;4.90;;
23718;SDS011;43322;52.230;5.702;2023-06-10T00:51:01;5.88;;;4.07;;
23718;SDS011;43322;52.230;5.702;2023-06-10T00:53:28;4.30;;;3.90;;
23718;SDS011;43322;52.230;5.702;2023-06-10T00:55:55;5.25;;;4.43;;
23718;SDS011;43322;52.230;5.702;2023-06-10T00:58:22;6.43;;;4.55;;
23718;SDS011;43322;52.230;5.702;2023-06-10T01:00:50;4.40;;;4.00;;
23718;SDS011;43322;52.230;5.702;2023-06-10T01:03:17;5.00;;;4.50;;
23718;SDS011;43322;52.230;5.702;2023-06-10T01:05:45;4.95;;;4.55;;
23718;SDS011;43322;52.230;5.702;2023-06-10T01:08:23;4.65;;;4.22;;
23718;SDS011;43322;52.230;5.702;2023-06-10T01:11:01;6.38;;;4.40;;
23718;SDS011;43322;52.230;5.702;2023-06-10T01:13:33;4.53;;;4.13;;
23718;SDS011;43322;52.230;5.702;2023-06-10T01:16:03;6.60;;;4.53;;
23718;SDS011;43322;52.230;5.702;2023-06-10T01:18:31;5.10;;;4.55;;
23718;SDS011;43322;52.230;5.702;2023-06-10T01:20:59;5.82;;;4.72;;
23718;SDS011;43322;52.230;5.702;2023-06-10T01:23:27;5.28;;;4.35;;
23718;SDS011;43322;52.230;5.702;2023-06-10T01:25:55;4.30;;;4.00;;
23718;SDS011;43322;52.230;5.702;2023-06-10T01:28:27;5.93;;;4.25;;
23718;SDS011;43322;52.230;5.702;2023-06-10T01:31:00;5.13;;;4.60;;
23718;SDS011;43322;52.230;5.702;2023-06-10T01:33:34;6.88;;;4.60;;
23718;SDS011;43322;52.230;5.702;2023-06-10T01:36:05;5.93;;;4.22;;
23718;SDS011;43322;52.230;5.702;2023-06-10T01:38:39;7.28;;;4.70;;
23718;SDS011;43322;52.230;5.702;2023-06-10T01:41:08;6.10;;;4.32;;
23718;SDS011;43322;52.230;5.702;2023-06-10T01:43:37;5.22;;;4.60;;
23718;SDS011;43322;52.230;5.702;2023-06-10T01:46:04;6.55;;;4.30;;
23718;SDS011;43322;52.230;5.702;2023-06-10T01:48:31;5.00;;;4.47;;
23718;SDS011;43322;52.230;5.702;2023-06-10T01:50:58;4.72;;;4.30;;
23718;SDS011;43322;52.230;5.702;2023-06-10T01:53:24;5.20;;;4.70;;
23718;SDS011;43322;52.230;5.702;2023-06-10T01:55:52;6.68;;;4.68;;
23718;SDS011;43322;52.230;5.702;2023-06-10T01:58:19;8.85;;;4.70;;
23718;SDS011;43322;52.230;5.702;2023-06-10T02:00:46;7.95;;;4.63;;
23718;SDS011;43322;52.230;5.702;2023-06-10T02:03:13;5.00;;;4.57;;
23718;SDS011;43322;52.230;5.702;2023-06-10T02:05:40;5.15;;;4.75;;
23718;SDS011;43322;52.230;5.702;2023-06-10T02:08:07;5.55;;;4.38;;
23718;SDS011;43322;52.230;5.702;2023-06-10T02:10:33;6.95;;;4.75;;
23718;SDS011;43322;52.230;5.702;2023-06-10T02:13:02;7.32;;;4.30;;
23718;SDS011;43322;52.230;5.702;2023-06-10T02:15:28;5.63;;;4.63;;
23718;SDS011;43322;52.230;5.702;2023-06-10T02:17:55;5.72;;;4.40;;
23718;SDS011;43322;52.230;5.702;2023-06-10T02:20:22;5.30;;;4.90;;
23718;SDS011;43322;52.230;5.702;2023-06-10T02:22:49;8.60;;;4.60;;
23718;SDS011;43322;52.230;5.702;2023-06-10T02:25:16;7.85;;;4.75;;
23718;SDS011;43322;52.230;5.702;2023-06-10T02:27:43;5.07;;;4.57;;
23718;SDS011;43322;52.230;5.702;2023-06-10T02:30:12;5.30;;;4.80;;
23718;SDS011;43322;52.230;5.702;2023-06-10T02:32:39;9.27;;;4.90;;
23718;SDS011;43322;52.230;5.702;2023-06-10T02:35:06;5.97;;;4.93;;
23718;SDS011;43322;52.230;5.702;2023-06-10T02:37:37;5.15;;;4.72;;
23718;SDS011;43322;52.230;5.702;2023-06-10T02:40:04;6.65;;;4.72;;
23718;SDS011;43322;52.230;5.702;2023-06-10T02:42:32;5.25;;;4.72;;
23718;SDS011;43322;52.230;5.702;2023-06-10T02:44:58;6.95;;;4.65;;
23718;SDS011;43322;52.230;5.702;2023-06-10T02:47:27;6.43;;;4.65;;
23718;SDS011;43322;52.230;5.702;2023-06-10T02:49:54;6.25;;;5.18;;
23718;SDS011;43322;52.230;5.702;2023-06-10T02:52:20;5.63;;;4.80;;
23718;SDS011;43322;52.230;5.702;2023-06-10T02:54:47;9.32;;;5.07;;
23718;SDS011;43322;52.230;5.702;2023-06-10T02:57:14;6.88;;;4.93;;
23718;SDS011;43322;52.230;5.702;2023-06-10T02:59:41;5.60;;;4.90;;
23718;SDS011;43322;52.230;5.702;2023-06-10T03:02:08;9.05;;;5.07;;
23718;SDS011;43322;52.230;5.702;2023-06-10T03:04:37;5.47;;;4.97;;
23718;SDS011;43322;52.230;5.702;2023-06-10T03:07:04;5.03;;;4.63;;
23718;SDS011;43322;52.230;5.702;2023-06-10T03:09:32;7.70;;;4.95;;
23718;SDS011;43322;52.230;5.702;2023-06-10T03:11:58;9.07;;;5.60;;
23718;SDS011;43322;52.230;5.702;2023-06-10T03:14:25;5.75;;;4.72;;
23718;SDS011;43322;52.230;5.702;2023-06-10T03:16:52;7.22;;;5.50;;
23718;SDS011;43322;52.230;5.702;2023-06-10T03:19:19;5.50;;;5.00;;
23718;SDS011;43322;52.230;5.702;2023-06-10T03:21:48;7.60;;;5.05;;
23718;SDS011;43322;52.230;5.702;2023-06-10T03:24:16;7.70;;;4.95;;
23718;SDS011;43322;52.230;5.702;2023-06-10T03:26:42;8.98;;;5.15;;
23718;SDS011;43322;52.230;5.702;2023-06-10T03:29:09;5.80;;;5.20;;
23718;SDS011;43322;52.230;5.702;2023-06-10T03:31:36;6.65;;;5.32;;
23718;SDS011;43322;52.230;5.702;2023-06-10T03:34:03;8.57;;;4.95;;
23718;SDS011;43322;52.230;5.702;2023-06-10T03:36:30;7.78;;;4.82;;
23718;SDS011;43322;52.230;5.702;2023-06-10T03:38:58;7.38;;;5.68;;
23718;SDS011;43322;52.230;5.702;2023-06-10T03:41:25;5.38;;;4.85;;
23718;SDS011;43322;52.230;5.702;2023-06-10T03:43:51;7.82;;;5.30;;
23718;SDS011;43322;52.230;5.702;2023-06-10T03:46:18;9.35;;;5.75;;
23718;SDS011;43322;52.230;5.702;2023-06-10T03:48:45;8.23;;;5.13;;
23718;SDS011;43322;52.230;5.702;2023-06-10T03:51:11;5.95;;;5.30;;
23718;SDS011;43322;52.230;5.702;2023-06-10T03:53:38;6.22;;;5.43;;
23718;SDS011;43322;52.230;5.702;2023-06-10T03:56:06;7.07;;;5.00;;
23718;SDS011;43322;52.230;5.702;2023-06-10T03:58:33;10.30;;;5.38;;
23718;SDS011;43322;52.230;5.702;2023-06-10T04:00:59;9.45;;;5.30;;
23718;SDS011;43322;52.230;5.702;2023-06-10T04:03:26;7.20;;;5.00;;
23718;SDS011;43322;52.230;5.702;2023-06-10T04:05:53;6.22;;;5.10;;
23718;SDS011;43322;52.230;5.702;2023-06-10T04:08:20;7.38;;;5.38;;
23718;SDS011;43322;52.230;5.702;2023-06-10T04:10:47;8.93;;;5.55;;
23718;SDS011;43322;52.230;5.702;2023-06-10T04:13:15;6.20;;;5.60;;
23718;SDS011;43322;52.230;5.702;2023-06-10T04:15:42;5.60;;;5.10;;
23718;SDS011;43322;52.230;5.702;2023-06-10T04:18:09;6.20;;;5.70;;
23718;SDS011;43322;52.230;5.702;2023-06-10T04:20:35;8.27;;;5.47;;
23718;SDS011;43322;52.230;5.702;2023-06-10T04:23:02;9.13;;;5.45;;
23718;SDS011;43322;52.230;5.702;2023-06-10T04:25:29;7.47;;;5.35;;
23718;SDS011;43322;52.230;5.702;2023-06-10T04:27:56;7.45;;;5.18;;
23718;SDS011;43322;52.230;5.702;2023-06-10T04:30:24;7.97;;;5.75;;
23718;SDS011;43322;52.230;5.702;2023-06-10T04:32:51;6.38;;;5.55;;
23718;SDS011;43322;52.230;5.702;2023-06-10T04:35:18;7.25;;;5.53;;
23718;SDS011;43322;52.230;5.702;2023-06-10T04:37:44;6.35;;;5.75;;
23718;SDS011;43322;52.230;5.702;2023-06-10T04:40:11;5.50;;;5.07;;
23718;SDS011;43322;52.230;5.702;2023-06-10T04:42:38;6.10;;;5.05;;
23718;SDS011;43322;52.230;5.702;2023-06-10T04:45:05;6.55;;;5.80;;
23718;SDS011;43322;52.230;5.702;2023-06-10T04:47:35;8.18;;;5.60;;
23718;SDS011;43322;52.230;5.702;2023-06-10T04:50:02;8.50;;;5.78;;
23718;SDS011;43322;52.230;5.702;2023-06-10T04:52:29;9.75;;;5.57;;
23718;SDS011;43322;52.230;5.702;2023-06-10T04:54:57;11.13;;;5.53;;
23718;SDS011;43322;52.230;5.702;2023-06-10T04:57:24;6.35;;;5.82;;
23718;SDS011;43322;52.230;5.702;2023-06-10T04:59:51;9.40;;;5.97;;
23718;SDS011;43322;52.230;5.702;2023-06-10T05:02:18;8.68;;;5.50;;
23718;SDS011;43322;52.230;5.702;2023-06-10T05:04:46;11.30;;;5.90;;
23718;SDS011;43322;52.230;5.702;2023-06-10T05:07:12;8.88;;;5.47;;
23718;SDS011;43322;52.230;5.702;2023-06-10T05:09:39;7.10;;;5.47;;
23718;SDS011;43322;52.230;5.702;2023-06-10T05:12:06;6.72;;;5.65;;
23718;SDS011;43322;52.230;5.702;2023-06-10T05:14:34;11.77;;;5.60;;
23718;SDS011;43322;52.230;5.702;2023-06-10T05:17:00;6.45;;;5.72;;
23718;SDS011;43322;52.230;5.702;2023-06-10T05:19:27;9.45;;;5.88;;
23718;SDS011;43322;52.230;5.702;2023-06-10T05:21:55;7.72;;;5.53;;
23718;SDS011;43322;52.230;5.702;2023-06-10T05:24:22;10.73;;;5.50;;
23718;SDS011;43322;52.230;5.702;2023-06-10T05:26:49;8.80;;;6.07;;
23718;SDS011;43322;52.230;5.702;2023-06-10T05:29:15;6.47;;;5.88;;
23718;SDS011;43322;52.230;5.702;2023-06-10T05:31:42;7.28;;;6.28;;
23718;SDS011;43322;52.230;5.702;2023-06-10T05:34:09;10.23;;;6.20;;
23718;SDS011;43322;52.230;5.702;2023-06-10T05:36:35;9.65;;;5.80;;
23718;SDS011;43322;52.230;5.702;2023-06-10T05:39:03;8.65;;;6.00;;
23718;SDS011;43322;52.230;5.702;2023-06-10T05:41:31;11.25;;;5.90;;
23718;SDS011;43322;52.230;5.702;2023-06-10T05:43:57;6.22;;;5.65;;
23718;SDS011;43322;52.230;5.702;2023-06-10T05:46:24;6.63;;;5.60;;
23718;SDS011;43322;52.230;5.702;2023-06-10T05:48:51;8.25;;;5.30;;
23718;SDS011;43322;52.230;5.702;2023-06-10T05:51:17;5.70;;;5.30;;
23718;SDS011;43322;52.230;5.702;2023-06-10T05:53:44;6.45;;;5.35;;
23718;SDS011;43322;52.230;5.702;2023-06-10T05:56:12;7.00;;;5.40;;
23718;SDS011;43322;52.230;5.702;2023-06-10T05:58:39;7.05;;;5.90;;
23718;SDS011;43322;52.230;5.702;2023-06-10T06:01:06;10.55;;;5.85;;
23718;SDS011;43322;52.230;5.702;2023-06-10T06:03:32;6.20;;;5.60;;
23718;SDS011;43322;52.230;5.702;2023-06-10T06:05:59;7.95;;;5.35;;
23718;SDS011;43322;52.230;5.702;2023-06-10T06:08:26;6.57;;;5.65;;
23718;SDS011;43322;52.230;5.702;2023-06-10T06:10:53;7.10;;;5.30;;
23718;SDS011;43322;52.230;5.702;2023-06-10T06:13:21;5.80;;;5.30;;
23718;SDS011;43322;52.230;5.702;2023-06-10T06:15:47;5.78;;;5.15;;
23718;SDS011;43322;52.230;5.702;2023-06-10T06:18:14;5.63;;;5.13;;
23718;SDS011;43322;52.230;5.702;2023-06-10T06:20:41;5.75;;;5.22;;
23718;SDS011;43322;52.230;5.702;2023-06-10T06:23:08;6.00;;;5.28;;
23718;SDS011;43322;52.230;5.702;2023-06-10T06:25:35;6.95;;;5.55;;
23718;SDS011;43322;52.230;5.702;2023-06-10T06:28:03;5.88;;;5.18;;
23718;SDS011;43322;52.230;5.702;2023-06-10T06:30:31;9.90;;;5.70;;
23718;SDS011;43322;52.230;5.702;2023-06-10T06:32:58;5.65;;;5.15;;
23718;SDS011;43322;52.230;5.702;2023-06-10T06:35:25;5.95;;;5.32;;
23718;SDS011;43322;52.230;5.702;2023-06-10T06:37:51;10.32;;;5.65;;
23718;SDS011;43322;52.230;5.702;2023-06-10T06:40:18;6.80;;;5.20;;
23718;SDS011;43322;52.230;5.702;2023-06-10T06:42:45;7.93;;;4.95;;
23718;SDS011;43322;52.230;5.702;2023-06-10T06:45:12;6.97;;;5.07;;
23718;SDS011;43322;52.230;5.702;2023-06-10T06:47:40;6.03;;;4.97;;
23718;SDS011;43322;52.230;5.702;2023-06-10T06:50:08;5.57;;;5.07;;
23718;SDS011;43322;52.230;5.702;2023-06-10T06:52:35;6.90;;;5.13;;
23718;SDS011;43322;52.230;5.702;2023-06-10T06:55:02;5.30;;;4.78;;
23718;SDS011;43322;52.230;5.702;2023-06-10T06:57:29;7.00;;;4.75;;
23718;SDS011;43322;52.230;5.702;2023-06-10T06:59:56;6.35;;;4.72;;
23718;SDS011;43322;52.230;5.702;2023-06-10T07:02:22;7.38;;;5.20;;
23718;SDS011;43322;52.230;5.702;2023-06-10T07:04:50;7.45;;;5.10;;
23718;SDS011;43322;52.230;5.702;2023-06-10T07:07:20;6.55;;;5.05;;
23718;SDS011;43322;52.230;5.702;2023-06-10T07:09:47;7.10;;;5.00;;
23718;SDS011;43322;52.230;5.702;2023-06-10T07:12:13;6.05;;;4.85;;
23718;SDS011;43322;52.230;5.702;2023-06-10T07:14:40;5.72;;;5.15;;
23718;SDS011;43322;52.230;5.702;2023-06-10T07:17:07;5.15;;;4.75;;
23718;SDS011;43322;52.230;5.702;2023-06-10T07:19:34;8.88;;;4.95;;
23718;SDS011;43322;52.230;5.702;2023-06-10T07:22:02;8.60;;;4.80;;
23718;SDS011;43322;52.230;5.702;2023-06-10T07:24:29;5.57;;;5.03;;
23718;SDS011;43322;52.230;5.702;2023-06-10T07:26:55;6.35;;;5.40;;
23718;SDS011;43322;52.230;5.702;2023-06-10T07:29:22;8.13;;;5.00;;
23718;SDS011;43322;52.230;5.702;2023-06-10T07:31:49;5.05;;;4.68;;
23718;SDS011;43322;52.230;5.702;2023-06-10T07:34:15;6.93;;;5.28;;
23718;SDS011;43322;52.230;5.702;2023-06-10T07:36:42;6.25;;;4.78;;
23718;SDS011;43322;52.230;5.702;2023-06-10T07:39:10;6.00;;;5.50;;
23718;SDS011;43322;52.230;5.702;2023-06-10T07:41:37;6.70;;;4.85;;
23718;SDS011;43322;52.230;5.702;2023-06-10T07:44:03;5.78;;;4.78;;
23718;SDS011;43322;52.230;5.702;2023-06-10T07:46:30;5.15;;;4.63;;
23718;SDS011;43322;52.230;5.702;2023-06-10T07:48:57;5.00;;;4.50;;
23718;SDS011;43322;52.230;5.702;2023-06-10T07:51:24;7.40;;;5.05;;
23718;SDS011;43322;52.230;5.702;2023-06-10T07:53:50;5.03;;;4.50;;
23718;SDS011;43322;52.230;5.702;2023-06-10T07:56:18;4.93;;;4.43;;
23718;SDS011;43322;52.230;5.702;2023-06-10T07:58:46;5.63;;;4.60;;
23718;SDS011;43322;52.230;5.702;2023-06-10T08:01:13;5.28;;;4.78;;
23718;SDS011;43322;52.230;5.702;2023-06-10T08:03:40;4.88;;;4.55;;
23718;SDS011;43322;52.230;5.702;2023-06-10T08:06:06;6.40;;;4.97;;
23718;SDS011;43322;52.230;5.702;2023-06-10T08:08:33;8.23;;;4.72;;
23718;SDS011;43322;52.230;5.702;2023-06-10T08:11:05;5.80;;;5.13;;
23718;SDS011;43322;52.230;5.702;2023-06-10T08:13:33;6.43;;;4.93;;
23718;SDS011;43322;52.230;5.702;2023-06-10T08:16:00;6.28;;;4.72;;
23718;SDS011;43322;52.230;5.702;2023-06-10T08:18:26;6.57;;;4.85;;
23718;SDS011;43322;52.230;5.702;2023-06-10T08:20:53;4.72;;;4.32;;
23718;SDS011;43322;52.230;5.702;2023-06-10T08:23:20;5.93;;;4.15;;
23718;SDS011;43322;52.230;5.702;2023-06-10T08:25:46;4.55;;;4.18;;
23718;SDS011;43322;52.230;5.702;2023-06-10T08:28:13;5.38;;;4.88;;
23718;SDS011;43322;52.230;5.702;2023-06-10T08:30:42;4.88;;;4.40;;
23718;SDS011;43322;52.230;5.702;2023-06-10T08:33:09;4.88;;;4.47;;
23718;SDS011;43322;52.230;5.702;2023-06-10T08:35:35;5.07;;;4.40;;
23718;SDS011;43322;52.230;5.702;2023-06-10T08:38:02;5.95;;;4.65;;
23718;SDS011;43322;52.230;5.702;2023-06-10T08:40:29;5.00;;;4.43;;
23718;SDS011;43322;52.230;5.702;2023-06-10T08:42:58;4.53;;;4.13;;
23718;SDS011;43322;52.230;5.702;2023-06-10T08:45:30;5.70;;;4.10;;
23718;SDS011;43322;52.230;5.702;2023-06-10T08:47:58;4.90;;;4.45;;
23718;SDS011;43322;52.230;5.702;2023-06-10T08:50:26;6.72;;;4.53;;
23718;SDS011;43322;52.230;5.702;2023-06-10T08:52:57;7.25;;;5.03;;
23718;SDS011;43322;52.230;5.702;2023-06-10T08:55:26;6.35;;;4.50;;
23718;SDS011;43322;52.230;5.702;2023-06-10T08:57:56;5.13;;;4.43;;
23718;SDS011;43322;52.230;5.702;2023-06-10T09:00:23;4.90;;;4.10;;
23718;SDS011;43322;52.230;5.702;2023-06-10T09:02:52;4.47;;;4.07;;
23718;SDS011;43322;52.230;5.702;2023-06-10T09:05:20;4.55;;;4.10;;
23718;SDS011;43322;52.230;5.702;2023-06-10T09:07:47;5.07;;;4.15;;
23718;SDS011;43322;52.230;5.702;2023-06-10T09:10:14;4.45;;;4.10;;
23718;SDS011;43322;52.230;5.702;2023-06-10T09:12:42;4.18;;;3.88;;
23718;SDS011;43322;52.230;5.702;2023-06-10T09:15:09;4.45;;;4.05;;
23718;SDS011;43322;52.230;5.702;2023-06-10T09:17:37;4.75;;;3.85;;
23718;SDS011;43322;52.230;5.702;2023-06-10T09:20:06;5.03;;;3.95;;
23718;SDS011;43322;52.230;5.702;2023-06-10T09:22:35;4.90;;;4.20;;
23718;SDS011;43322;52.230;5.702;2023-06-10T09:25:02;4.10;;;3.80;;
23718;SDS011;43322;52.230;5.702;2023-06-10T09:27:30;4.43;;;4.03;;
23718;SDS011;43322;52.230;5.702;2023-06-10T09:29:57;6.03;;;4.25;;
23718;SDS011;43322;52.230;5.702;2023-06-10T09:32:24;4.20;;;3.90;;
23718;SDS011;43322;52.230;5.702;2023-06-10T09:34:52;4.18;;;3.88;;
23718;SDS011;43322;52.230;5.702;2023-06-10T09:37:19;4.63;;;4.22;;
23718;SDS011;43322;52.230;5.702;2023-06-10T09:39:56;4.47;;;4.07;;
23718;SDS011;43322;52.230;5.702;2023-06-10T09:42:29;4.35;;;3.85;;
23718;SDS011;43322;52.230;5.702;2023-06-10T09:44:58;4.20;;;3.88;;
23718;SDS011;43322;52.230;5.702;2023-06-10T09:47:25;6.28;;;4.13;;
23718;SDS011;43322;52.230;5.702;2023-06-10T09:49:52;4.40;;;4.10;;
23718;SDS011;43322;52.230;5.702;2023-06-10T09:52:21;5.30;;;4.03;;
23718;SDS011;43322;52.230;5.702;2023-06-10T09:54:48;5.22;;;3.70;;
23718;SDS011;43322;52.230;5.702;2023-06-10T09:57:18;4.47;;;4.18;;
23718;SDS011;43322;52.230;5.702;2023-06-10T09:59:45;4.22;;;3.92;;
23718;SDS011;43322;52.230;5.702;2023-06-10T10:02:14;4.53;;;4.15;;
23718;SDS011;43322;52.230;5.702;2023-06-10T10:04:42;4.63;;;4.22;;
23718;SDS011;43322;52.230;5.702;2023-06-10T10:07:09;5.13;;;3.35;;
23718;SDS011;43322;52.230;5.702;2023-06-10T10:09:36;4.38;;;3.70;;
23718;SDS011;43322;52.230;5.702;2023-06-10T10:12:03;3.72;;;3.50;;
23718;SDS011;43322;52.230;5.702;2023-06-10T10:14:36;3.97;;;3.50;;
23718;SDS011;43322;52.230;5.702;2023-06-10T10:17:04;4.75;;;3.60;;
23718;SDS011;43322;52.230;5.702;2023-06-10T10:19:36;3.88;;;3.63;;
23718;SDS011;43322;52.230;5.702;2023-06-10T10:22:15;4.25;;;3.85;;
23718;SDS011;43322;52.230;5.702;2023-06-10T10:24:46;4.88;;;3.58;;
23718;SDS011;43322;52.230;5.702;2023-06-10T10:27:18;4.00;;;3.28;;
23718;SDS011;43322;52.230;5.702;2023-06-10T10:29:49;5.88;;;3.97;;
23718;SDS011;43322;52.230;5.702;2023-06-10T10:32:19;4.30;;;3.95;;
23718;SDS011;43322;52.230;5.702;2023-06-10T10:34:53;4.03;;;3.72;;
23718;SDS011;43322;52.230;5.702;2023-06-10T10:37:27;4.13;;;3.78;;
23718;SDS011;43322;52.230;5.702;2023-06-10T10:39:54;3.75;;;3.50;;
23718;SDS011;43322;52.230;5.702;2023-06-10T10:42:22;3.95;;;3.58;;
23718;SDS011;43322;52.230;5.702;2023-06-10T10:44:50;4.25;;;3.63;;
23718;SDS011;43322;52.230;5.702;2023-06-10T10:47:18;5.43;;;4.03;;
23718;SDS011;43322;52.230;5.702;2023-06-10T10:49:48;5.30;;;3.75;;
23718;SDS011;43322;52.230;5.702;2023-06-10T10:52:17;3.80;;;3.47;;
23718;SDS011;43322;52.230;5.702;2023-06-10T10:54:44;3.67;;;3.38;;
23718;SDS011;43322;52.230;5.702;2023-06-10T10:57:13;4.00;;;3.70;;
23718;SDS011;43322;52.230;5.702;2023-06-10T11:02:36;3.17;;;3.08;;
23718;SDS011;43322;52.230;5.702;2023-06-10T11:05:08;7.20;;;3.80;;
23718;SDS011;43322;52.230;5.702;2023-06-10T11:07:35;3.53;;;3.22;;
23718;SDS011;43322;52.230;5.702;2023-06-10T11:10:03;3.83;;;3.50;;
23718;SDS011;43322;52.230;5.702;2023-06-10T11:12:50;3.90;;;3.60;;
23718;SDS011;43322;52.230;5.702;2023-06-10T11:15:23;3.90;;;3.58;;
23718;SDS011;43322;52.230;5.702;2023-06-10T11:18:06;3.67;;;3.38;;
23718;SDS011;43322;52.230;5.702;2023-06-10T11:23:24;4.53;;;3.40;;
23718;SDS011;43322;52.230;5.702;2023-06-10T11:29:08;4.05;;;3.75;;
23718;SDS011;43322;52.230;5.702;2023-06-10T11:31:44;4.10;;;3.80;;
23718;SDS011;43322;52.230;5.702;2023-06-10T11:34:12;4.03;;;3.60;;
23718;SDS011;43322;52.230;5.702;2023-06-10T11:36:40;3.78;;;3.55;;
23718;SDS011;43322;52.230;5.702;2023-06-10T11:39:10;4.93;;;3.60;;
23718;SDS011;43322;52.230;5.702;2023-06-10T11:41:37;4.47;;;4.00;;
23718;SDS011;43322;52.230;5.702;2023-06-10T11:44:07;3.95;;;3.65;;
23718;SDS011;43322;52.230;5.702;2023-06-10T11:46:35;3.42;;;3.22;;
23718;SDS011;43322;52.230;5.702;2023-06-10T11:49:04;4.18;;;3.78;;
23718;SDS011;43322;52.230;5.702;2023-06-10T11:51:32;4.22;;;3.50;;
23718;SDS011;43322;52.230;5.702;2023-06-10T11:54:01;8.05;;;3.50;;
23718;SDS011;43322;52.230;5.702;2023-06-10T11:56:29;4.20;;;3.75;;
23718;SDS011;43322;52.230;5.702;2023-06-10T11:58:57;4.22;;;3.55;;
23718;SDS011;43322;52.230;5.702;2023-06-10T12:01:29;6.57;;;3.80;;
23718;SDS011;43322;52.230;5.702;2023-06-10T12:03:57;4.80;;;3.53;;
23718;SDS011;43322;52.230;5.702;2023-06-10T12:06:26;5.70;;;3.50;;
23718;SDS011;43322;52.230;5.702;2023-06-10T12:08:53;4.28;;;3.85;;
23718;SDS011;43322;52.230;5.702;2023-06-10T12:11:21;3.55;;;3.25;;
23718;SDS011;43322;52.230;5.702;2023-06-10T12:13:48;3.92;;;3.70;;
23718;SDS011;43322;52.230;5.702;2023-06-10T12:16:16;3.78;;;3.58;;
23718;SDS011;43322;52.230;5.702;2023-06-10T12:18:44;3.90;;;3.70;;
23718;SDS011;43322;52.230;5.702;2023-06-10T12:21:20;4.88;;;3.70;;
23718;SDS011;43322;52.230;5.702;2023-06-10T12:24:01;3.80;;;3.33;;
23718;SDS011;43322;52.230;5.702;2023-06-10T12:26:39;7.07;;;4.07;;
23718;SDS011;43322;52.230;5.702;2023-06-10T12:29:16;3.30;;;3.10;;
23718;SDS011;43322;52.230;5.702;2023-06-10T12:31:54;3.80;;;3.50;;
23718;SDS011;43322;52.230;5.702;2023-06-10T12:34:32;4.00;;;3.70;;
23718;SDS011;43322;52.230;5.702;2023-06-10T12:37:01;4.00;;;3.80;;
23718;SDS011;43322;52.230;5.702;2023-06-10T12:39:31;3.90;;;3.60;;
23718;SDS011;43322;52.230;5.702;2023-06-10T12:41:59;4.40;;;4.00;;
23718;SDS011;43322;52.230;5.702;2023-06-10T12:44:31;3.63;;;3.42;;
23718;SDS011;43322;52.230;5.702;2023-06-10T12:46:59;4.00;;;3.72;;
23718;SDS011;43322;52.230;5.702;2023-06-10T12:49:26;5.28;;;3.67;;
23718;SDS011;43322;52.230;5.702;2023-06-10T12:51:53;3.95;;;3.70;;
23718;SDS011;43322;52.230;5.702;2023-06-10T12:54:20;4.80;;;3.80;;
23718;SDS011;43322;52.230;5.702;2023-06-10T12:56:49;5.30;;;3.47;;
23718;SDS011;43322;52.230;5.702;2023-06-10T12:59:16;3.75;;;3.50;;
23718;SDS011;43322;52.230;5.702;2023-06-10T13:01:43;3.97;;;3.67;;
23718;SDS011;43322;52.230;5.702;2023-06-10T13:04:09;3.92;;;3.72;;
23718;SDS011;43322;52.230;5.702;2023-06-10T13:06:36;3.70;;;3.40;;
23718;SDS011;43322;52.230;5.702;2023-06-10T13:09:07;4.20;;;3.42;;
23718;SDS011;43322;52.230;5.702;2023-06-10T13:11:34;5.90;;;3.70;;
23718;SDS011;43322;52.230;5.702;2023-06-10T13:14:03;3.53;;;3.22;;
23718;SDS011;43322;52.230;5.702;2023-06-10T13:16:31;7.25;;;4.00;;
23718;SDS011;43322;52.230;5.702;2023-06-10T13:18:58;3.85;;;3.65;;
23718;SDS011;43322;52.230;5.702;2023-06-10T13:21:27;4.05;;;3.85;;
23718;SDS011;43322;52.230;5.702;2023-06-10T13:23:54;3.97;;;3.47;;
23718;SDS011;43322;52.230;5.702;2023-06-10T13:26:21;3.85;;;3.50;;
23718;SDS011;43322;52.230;5.702;2023-06-10T13:28:48;5.60;;;3.53;;
23718;SDS011;43322;52.230;5.702;2023-06-10T13:31:16;3.80;;;3.50;;
23718;SDS011;43322;52.230;5.702;2023-06-10T13:33:42;3.65;;;3.35;;
23718;SDS011;43322;52.230;5.702;2023-06-10T13:36:09;4.72;;;3.45;;
23718;SDS011;43322;52.230;5.702;2023-06-10T13:38:37;3.70;;;3.50;;
23718;SDS011;43322;52.230;5.702;2023-06-10T13:41:04;3.80;;;3.50;;
23718;SDS011;43322;52.230;5.702;2023-06-10T13:43:30;4.13;;;3.75;;
23718;SDS011;43322;52.230;5.702;2023-06-10T13:45:57;7.38;;;3.50;;
23718;SDS011;43322;52.230;5.702;2023-06-10T13:48:25;3.45;;;3.25;;
23718;SDS011;43322;52.230;5.702;2023-06-10T13:50:52;4.70;;;3.83;;
23718;SDS011;43322;52.230;5.702;2023-06-10T13:53:19;3.40;;;3.08;;
23718;SDS011;43322;52.230;5.702;2023-06-10T13:55:45;5.15;;;3.70;;
23718;SDS011;43322;52.230;5.702;2023-06-10T13:58:12;3.85;;;3.65;;
23718;SDS011;43322;52.230;5.702;2023-06-10T14:00:39;4.03;;;3.72;;
23718;SDS011;43322;52.230;5.702;2023-06-10T14:03:06;3.40;;;3.20;;
23718;SDS011;43322;52.230;5.702;2023-06-10T14:05:34;3.92;;;3.63;;
23718;SDS011;43322;52.230;5.702;2023-06-10T14:08:00;3.55;;;3.30;;
23718;SDS011;43322;52.230;5.702;2023-06-10T14:10:27;3.50;;;3.20;;
23718;SDS011;43322;52.230;5.702;2023-06-10T14:12:54;3.55;;;3.35;;
23718;SDS011;43322;52.230;5.702;2023-06-10T14:15:21;3.50;;;3.30;;
23718;SDS011;43322;52.230;5.702;2023-06-10T14:17:48;3.78;;;3.47;;
23718;SDS011;43322;52.230;5.702;2023-06-10T14:20:14;4.50;;;3.35;;
23718;SDS011;43322;52.230;5.702;2023-06-10T14:22:42;3.72;;;3.42;;
23718;SDS011;43322;52.230;5.702;2023-06-10T14:25:09;4.70;;;3.83;;
23718;SDS011;43322;52.230;5.702;2023-06-10T14:27:36;6.10;;;3.60;;
23718;SDS011;43322;52.230;5.702;2023-06-10T14:30:04;3.97;;;3.50;;
23718;SDS011;43322;52.230;5.702;2023-06-10T14:32:31;3.83;;;3.53;;
23718;SDS011;43322;52.230;5.702;2023-06-10T14:34:58;6.07;;;3.63;;
23718;SDS011;43322;52.230;5.702;2023-06-10T14:37:25;3.75;;;3.30;;
23718;SDS011;43322;52.230;5.702;2023-06-10T14:39:53;4.47;;;4.05;;
23718;SDS011;43322;52.230;5.702;2023-06-10T14:42:19;3.80;;;3.50;;
23718;SDS011;43322;52.230;5.702;2023-06-10T14:44:46;3.78;;;3.58;;
23718;SDS011;43322;52.230;5.702;2023-06-10T14:47:13;3.80;;;3.50;;
23718;SDS011;43322;52.230;5.702;2023-06-10T14:49:39;3.40;;;3.20;;
23718;SDS011;43322;52.230;5.702;2023-06-10T14:52:09;3.80;;;3.60;;
23718;SDS011;43322;52.230;5.702;2023-06-10T14:54:35;3.35;;;3.15;;
23718;SDS011;43322;52.230;5.702;2023-06-10T14:57:04;4.03;;;3.67;;
23718;SDS011;43322;52.230;5.702;2023-06-10T14:59:32;3.70;;;3.50;;
23718;SDS011;43322;52.230;5.702;2023-06-10T15:01:58;5.85;;;3.28;;